Time;durP1;ratioP1;P1;durP2;ratioP2;P2;SDS_P1;SDS_P2;PMS_P1;PMS_P2;Temp;Humidity;BMP_temperature;BMP_pressure;BME280_temperature;BME280_humidity;BME280_pressure;Samples;Min_cycle;Max_cycle;Signal;HPM_P1;HPM_P2
2021/12/11 00:00:47;;;;;;;;;;;23.80;51.30;;;;;;1596254;74;1616;-57
2021/12/11 00:03:00;;;;;;;;;;;23.70;51.30;;;;;;1596557;73;790;-58
2021/12/11 00:05:02;;;;;;;;;;;23.70;51.20;;;;;;1597224;74;1945;-58
2021/12/11 00:07:04;;;;;;;;;;;23.70;51.30;;;;;;1599464;73;1137;-58
2021/12/11 00:09:11;;;;;;;;;;;23.70;51.30;;;;;;1594103;74;795;-56
2021/12/11 00:11:14;;;;;;;;;;;23.70;51.30;;;;;;1597808;74;845;-56
2021/12/11 00:13:17;;;;;;;;;;;23.70;51.20;;;;;;1598882;73;735;-58
2021/12/11 00:15:21;;;;;;;;;;;23.80;51.30;;;;;;1591917;74;733;-56
2021/12/11 00:17:24;;;;;;;;;;;23.80;51.30;;;;;;1594962;73;1114;-57
2021/12/11 00:19:28;;;;;;;;;;;23.70;51.30;;;;;;1597655;74;1942;-58
2021/12/11 00:21:30;;;;;;;;;;;23.70;51.30;;;;;;1602956;73;697;-57
2021/12/11 00:23:33;;;;;;;;;;;23.70;51.30;;;;;;1597123;74;592;-57
2021/12/11 00:25:44;;;;;;;;;;;23.70;51.30;;;;;;1599489;74;1931;-56
2021/12/11 00:27:48;;;;;;;;;;;23.70;51.30;;;;;;1595831;73;1123;-57
2021/12/11 00:29:50;;;;;;;;;;;23.80;51.30;;;;;;1591381;74;802;-57
2021/12/11 00:31:53;;;;;;;;;;;23.70;51.40;;;;;;1590822;74;748;-57
2021/12/11 00:33:55;;;;;;;;;;;23.80;51.40;;;;;;1584304;74;763;-57
2021/12/11 00:35:56;;;;;;;;;;;23.70;51.40;;;;;;1594051;73;692;-57
2021/12/11 00:38:03;;;;;;;;;;;23.70;51.40;;;;;;1584939;74;1127;-57
2021/12/11 00:40:06;;;;;;;;;;;23.70;51.50;;;;;;1594566;74;756;-58
2021/12/11 00:42:09;;;;;;;;;;;23.70;51.40;;;;;;1597270;74;1729;-58
2021/12/11 00:44:11;;;;;;;;;;;23.70;51.40;;;;;;1590720;73;812;-57
2021/12/11 00:46:14;;;;;;;;;;;23.80;51.50;;;;;;1591433;74;1945;-56
2021/12/11 00:48:17;;;;;;;;;;;23.70;51.40;;;;;;1598342;73;788;-57
2021/12/11 00:50:21;;;;;;;;;;;23.70;51.30;;;;;;1592029;73;761;-58
2021/12/11 00:52:39;;;;;;;;;;;23.80;51.30;;;;;;1596656;74;660;-57
2021/12/11 00:54:41;;;;;;;;;;;23.70;51.30;;;;;;1583250;74;679;-58
2021/12/11 00:56:45;;;;;;;;;;;23.70;51.30;;;;;;1589360;73;1147;-59
2021/12/11 00:58:48;;;;;;;;;;;23.70;51.40;;;;;;1589162;74;2029;-59
2021/12/11 01:00:51;;;;;;;;;;;23.70;51.40;;;;;;1589743;74;710;-57
2021/12/11 01:02:53;;;;;;;;;;;23.70;51.40;;;;;;1591624;74;750;-59
2021/12/11 01:04:55;;;;;;;;;;;23.80;51.40;;;;;;1597565;74;1926;-57
2021/12/11 01:06:59;;;;;;;;;;;23.80;51.40;;;;;;1599381;73;1135;-58
2021/12/11 01:09:08;;;;;;;;;;;23.80;51.40;;;;;;1586839;74;1806;-58
2021/12/11 01:11:14;;;;;;;;;;;23.70;51.40;;;;;;1591720;74;683;-58
2021/12/11 01:13:20;;;;;;;;;;;23.70;51.40;;;;;;1588078;74;717;-57
2021/12/11 01:15:34;;;;;;;;;;;23.70;51.30;;;;;;1588987;73;1506;-58
2021/12/11 01:17:49;;;;;;;;;;;23.70;51.30;;;;;;1589749;73;1284;-58
2021/12/11 01:19:45;;;;;;;;;;;23.70;51.30;;;;;;1597717;74;1624;-57
2021/12/11 01:21:57;;;;;;;;;;;23.80;51.40;;;;;;1594576;73;836;-59
2021/12/11 01:24:10;;;;;;;;;;;23.70;51.30;;;;;;1587032;74;1727;-58
2021/12/11 01:26:00;;;;;;;;;;;23.70;51.30;;;;;;1581613;74;1940;-58
2021/12/11 01:28:03;;;;;;;;;;;23.70;51.30;;;;;;1594203;74;675;-59
2021/12/11 01:30:06;;;;;;;;;;;23.70;51.30;;;;;;1598272;74;752;-58
2021/12/11 01:32:08;;;;;;;;;;;23.80;51.30;;;;;;1598397;73;758;-57
2021/12/11 01:34:10;;;;;;;;;;;23.70;51.30;;;;;;1588799;74;819;-57
2021/12/11 01:36:12;;;;;;;;;;;23.70;51.20;;;;;;1593997;74;1161;-58
2021/12/11 01:38:15;;;;;;;;;;;23.80;51.30;;;;;;1595679;74;771;-57
2021/12/11 01:40:19;;;;;;;;;;;23.70;51.20;;;;;;1593580;74;720;-58
2021/12/11 01:42:22;;;;;;;;;;;23.70;51.20;;;;;;1597329;73;755;-58
2021/12/11 01:44:28;;;;;;;;;;;23.70;51.20;;;;;;1591479;73;1957;-58
2021/12/11 01:46:29;;;;;;;;;;;23.70;51.20;;;;;;1597225;74;1928;-58
2021/12/11 01:48:33;;;;;;;;;;;23.70;51.20;;;;;;1595330;73;704;-58
2021/12/11 01:50:36;;;;;;;;;;;23.70;51.20;;;;;;1589885;73;617;-57
2021/12/11 01:52:44;;;;;;;;;;;23.70;51.20;;;;;;1593333;73;1665;-58
2021/12/11 01:54:46;;;;;;;;;;;23.70;51.30;;;;;;1595874;73;922;-58
2021/12/11 01:56:49;;;;;;;;;;;23.70;51.30;;;;;;1596622;73;1104;-59
2021/12/11 01:58:57;;;;;;;;;;;23.70;51.30;;;;;;1595281;74;762;-58
2021/12/11 02:00:57;;;;;;;;;;;23.70;51.20;;;;;;1560839;75;1644;-58
2021/12/11 02:03:01;;;;;;;;;;;23.70;51.30;;;;;;1593166;74;705;-58
2021/12/11 02:05:03;;;;;;;;;;;23.70;51.30;;;;;;1597241;73;1167;-57
2021/12/11 02:07:13;;;;;;;;;;;23.70;51.30;;;;;;1598710;73;1930;-58
2021/12/11 02:09:25;;;;;;;;;;;23.70;51.30;;;;;;1597591;74;1048;-58
2021/12/11 02:11:29;;;;;;;;;;;23.70;51.40;;;;;;1599675;74;727;-59
2021/12/11 02:13:41;;;;;;;;;;;23.70;51.30;;;;;;1598107;73;742;-58
2021/12/11 02:15:48;;;;;;;;;;;23.70;51.30;;;;;;1585636;74;1736;-58
2021/12/11 02:17:46;;;;;;;;;;;23.70;51.30;;;;;;1596008;73;1696;-58
2021/12/11 02:19:49;;;;;;;;;;;23.80;51.40;;;;;;1593092;74;756;-59
2021/12/11 02:21:55;;;;;;;;;;;23.70;51.30;;;;;;1593772;74;777;-58
2021/12/11 02:23:57;;;;;;;;;;;23.70;51.40;;;;;;1578990;74;1546;-57
2021/12/11 02:26:04;;;;;;;;;;;23.70;51.40;;;;;;1594903;73;1909;-56
2021/12/11 02:28:07;;;;;;;;;;;23.70;51.40;;;;;;1601370;73;2166;-58
2021/12/11 02:30:15;;;;;;;;;;;23.80;51.40;;;;;;1597688;74;787;-57
2021/12/11 02:32:16;;;;;;;;;;;23.70;51.30;;;;;;1589055;74;1628;-59
2021/12/11 02:34:28;;;;;;;;;;;23.80;51.30;;;;;;1591055;70;224391;-64
2021/12/11 02:36:32;;;;;;;;;;;23.80;51.30;;;;;;1586181;73;1772;-64
2021/12/11 02:38:35;;;;;;;;;;;23.70;51.30;;;;;;1583763;72;697;-65
2021/12/11 02:40:39;;;;;;;;;;;23.70;51.30;;;;;;1583711;74;1822;-63
2021/12/11 02:42:45;;;;;;;;;;;23.70;51.30;;;;;;1570460;74;2154;-63
2021/12/11 02:44:49;;;;;;;;;;;23.70;51.30;;;;;;1584413;73;1135;-63
2021/12/11 02:46:58;;;;;;;;;;;23.70;51.30;;;;;;1576594;73;1919;-64
2021/12/11 02:49:02;;;;;;;;;;;23.70;51.30;;;;;;1608854;73;890;-63
2021/12/11 02:51:08;;;;;;;;;;;23.70;51.30;;;;;;1588510;73;822;-64
2021/12/11 02:53:17;;;;;;;;;;;23.70;51.30;;;;;;1599573;73;1796;-64
2021/12/11 02:55:21;;;;;;;;;;;23.70;51.20;;;;;;1586495;73;1146;-64
2021/12/11 02:57:24;;;;;;;;;;;23.70;51.20;;;;;;1603610;73;2033;-63
2021/12/11 02:59:29;;;;;;;;;;;23.70;51.30;;;;;;1594399;73;1914;-63
2021/12/11 03:01:32;;;;;;;;;;;23.70;51.20;;;;;;1587896;73;1753;-64
2021/12/11 03:03:37;;;;;;;;;;;23.70;51.20;;;;;;1597833;73;720;-64
2021/12/11 03:05:45;;;;;;;;;;;23.70;51.20;;;;;;1582339;73;1929;-63
2021/12/11 03:07:50;;;;;;;;;;;23.60;51.10;;;;;;1597989;73;1686;-62
2021/12/11 03:09:49;;;;;;;;;;;23.70;51.20;;;;;;1604398;73;1484;-66
2021/12/11 03:11:54;;;;;;;;;;;23.70;51.20;;;;;;1594776;73;1055;-64
2021/12/11 03:13:56;;;;;;;;;;;23.70;51.20;;;;;;1621756;73;1143;-65
2021/12/11 03:15:58;;;;;;;;;;;23.60;51.10;;;;;;1590169;73;739;-64
2021/12/11 03:18:01;;;;;;;;;;;23.70;51.20;;;;;;1599617;73;682;-64
2021/12/11 03:20:04;;;;;;;;;;;23.70;51.20;;;;;;1608004;73;764;-64
2021/12/11 03:22:06;;;;;;;;;;;23.70;51.20;;;;;;1603392;73;687;-64
2021/12/11 03:24:08;;;;;;;;;;;23.60;51.00;;;;;;1591676;74;1181;-64
2021/12/11 03:26:10;;;;;;;;;;;23.70;51.20;;;;;;1601828;73;1940;-64
2021/12/11 03:28:12;;;;;;;;;;;23.60;51.00;;;;;;1601444;73;720;-64
2021/12/11 03:30:15;;;;;;;;;;;23.70;51.20;;;;;;1609380;73;761;-64
2021/12/11 03:32:18;;;;;;;;;;;23.70;51.20;;;;;;1602525;73;666;-65
2021/12/11 03:34:20;;;;;;;;;;;23.60;51.10;;;;;;1608162;73;1147;-65
2021/12/11 03:36:23;;;;;;;;;;;23.70;51.20;;;;;;1583841;73;772;-63
2021/12/11 03:38:25;;;;;;;;;;;23.70;51.20;;;;;;1604498;73;959;-63
2021/12/11 03:40:27;;;;;;;;;;;23.70;51.30;;;;;;1598816;73;711;-64
2021/12/11 03:42:30;;;;;;;;;;;23.70;51.20;;;;;;1604482;73;893;-64
2021/12/11 03:44:32;;;;;;;;;;;23.70;51.20;;;;;;1597886;73;1161;-65
2021/12/11 03:46:34;;;;;;;;;;;23.70;51.20;;;;;;1615721;73;1927;-65
2021/12/11 03:48:44;;;;;;;;;;;23.70;51.20;;;;;;1613738;73;730;-66
2021/12/11 03:50:46;;;;;;;;;;;23.70;51.20;;;;;;1579795;74;771;-64
2021/12/11 03:52:48;;;;;;;;;;;23.80;51.10;;;;;;1583899;73;770;-64
2021/12/11 03:54:50;;;;;;;;;;;23.70;51.10;;;;;;1601806;73;1159;-64
2021/12/11 03:56:52;;;;;;;;;;;23.80;51.10;;;;;;1592463;73;777;-64
2021/12/11 03:58:54;;;;;;;;;;;23.70;51.10;;;;;;1610180;73;749;-62
2021/12/11 04:00:58;;;;;;;;;;;23.80;51.00;;;;;;1600250;73;673;-64
2021/12/11 04:03:04;;;;;;;;;;;23.80;51.10;;;;;;1587067;73;977;-63
2021/12/11 04:05:04;;;;;;;;;;;23.80;51.00;;;;;;1605104;73;1574;-63
2021/12/11 04:07:07;;;;;;;;;;;23.90;51.20;;;;;;1602170;73;1936;-65
2021/12/11 04:09:09;;;;;;;;;;;23.80;51.00;;;;;;1616072;73;787;-62
2021/12/11 04:11:12;;;;;;;;;;;23.80;50.90;;;;;;1607781;73;782;-63
2021/12/11 04:13:14;;;;;;;;;;;23.80;51.00;;;;;;1615310;73;767;-65
2021/12/11 04:15:16;;;;;;;;;;;23.80;51.00;;;;;;1602722;73;1147;-66
2021/12/11 04:17:21;;;;;;;;;;;23.80;51.00;;;;;;1598414;73;753;-65
2021/12/11 04:19:22;;;;;;;;;;;23.90;50.90;;;;;;1588291;74;1726;-65
2021/12/11 04:21:24;;;;;;;;;;;23.90;50.90;;;;;;1588183;73;769;-63
2021/12/11 04:23:26;;;;;;;;;;;23.90;50.90;;;;;;1608082;73;824;-63
2021/12/11 04:25:28;;;;;;;;;;;23.90;50.80;;;;;;1601390;73;1177;-63
2021/12/11 04:27:30;;;;;;;;;;;24.00;50.80;;;;;;1597112;73;1930;-63
2021/12/11 04:29:32;;;;;;;;;;;24.00;50.80;;;;;;1601653;73;773;-63
2021/12/11 04:31:34;;;;;;;;;;;24.00;50.60;;;;;;1592489;73;714;-63
2021/12/11 04:33:38;;;;;;;;;;;23.90;50.60;;;;;;1608478;73;697;-63
2021/12/11 04:35:43;;;;;;;;;;;24.00;50.60;;;;;;1604132;73;2168;-62
2021/12/11 04:37:44;;;;;;;;;;;24.10;50.50;;;;;;1607451;73;1669;-64
2021/12/11 04:39:48;;;;;;;;;;;24.10;50.50;;;;;;1607482;73;779;-65
2021/12/11 04:42:06;;;;;;;;;;;24.00;50.30;;;;;;1584205;73;905;-64
2021/12/11 04:43:54;;;;;;;;;;;24.10;50.30;;;;;;1605699;73;1682;-65
2021/12/11 04:46:02;;;;;;;;;;;24.10;50.20;;;;;;1608284;72;804;-65
2021/12/11 04:48:19;;;;;;;;;;;24.10;50.30;;;;;;1603500;73;1881;-66
2021/12/11 04:50:21;;;;;;;;;;;24.10;50.30;;;;;;1606868;73;1623;-68
2021/12/11 04:52:33;;;;;;;;;;;24.10;50.20;;;;;;1610357;73;1571;-66
2021/12/11 04:58:55;;;;;;;;;;;24.20;50.10;;;;;;1576699;73;822;-64
2021/12/11 05:01:08;;;;;;;;;;;24.20;50.00;;;;;;1624019;73;1623;-65
2021/12/11 05:03:24;;;;;;;;;;;24.20;50.00;;;;;;1602356;73;1405;-67
2021/12/11 05:07:26;;;;;;;;;;;24.10;50.20;;;;;;1602459;73;1939;-65
2021/12/11 05:09:32;;;;;;;;;;;24.00;50.00;;;;;;1600928;73;1763;-66
2021/12/11 05:11:46;;;;;;;;;;;24.00;50.10;;;;;;1609487;73;1723;-68
2021/12/11 05:13:44;;;;;;;;;;;24.00;50.20;;;;;;1571372;73;1652;-65
2021/12/11 05:15:46;;;;;;;;;;;24.00;50.20;;;;;;1622114;73;1105;-67
2021/12/11 05:17:48;;;;;;;;;;;23.90;50.20;;;;;;1598046;73;760;-67
2021/12/11 05:19:50;;;;;;;;;;;24.00;50.20;;;;;;1585496;73;693;-65
2021/12/11 05:21:52;;;;;;;;;;;24.00;50.20;;;;;;1605685;73;778;-64
2021/12/11 05:23:54;;;;;;;;;;;23.90;50.20;;;;;;1597410;73;681;-64
2021/12/11 05:25:56;;;;;;;;;;;23.90;50.20;;;;;;1600763;73;760;-63
2021/12/11 05:27:58;;;;;;;;;;;24.00;50.20;;;;;;1584569;73;1953;-64
2021/12/11 05:30:00;;;;;;;;;;;23.90;50.20;;;;;;1596707;73;773;-63
2021/12/11 05:32:02;;;;;;;;;;;23.90;50.20;;;;;;1596498;73;730;-64
2021/12/11 05:34:04;;;;;;;;;;;23.90;50.20;;;;;;1593681;73;1091;-63
2021/12/11 05:36:06;;;;;;;;;;;23.90;50.30;;;;;;1605353;73;826;-64
2021/12/11 05:38:09;;;;;;;;;;;23.90;50.20;;;;;;1590794;74;585;-64
2021/12/11 05:40:12;;;;;;;;;;;24.00;50.20;;;;;;1609798;73;706;-63
2021/12/11 05:42:13;;;;;;;;;;;24.00;50.10;;;;;;1602674;73;690;-65
2021/12/11 05:44:16;;;;;;;;;;;24.00;50.10;;;;;;1606886;73;1142;-64
2021/12/11 05:46:18;;;;;;;;;;;24.00;50.20;;;;;;1607316;73;720;-68
2021/12/11 05:48:20;;;;;;;;;;;24.00;50.20;;;;;;1596146;74;1921;-70
2021/12/11 05:50:26;;;;;;;;;;;24.00;50.20;;;;;;1598387;73;673;-67
2021/12/11 05:52:28;;;;;;;;;;;24.20;50.00;;;;;;1587358;73;671;-65
2021/12/11 05:54:30;;;;;;;;;;;24.20;50.00;;;;;;1581094;73;1190;-68
2021/12/11 05:56:35;;;;;;;;;;;24.20;49.90;;;;;;1582109;73;768;-69
2021/12/11 05:58:46;;;;;;;;;;;24.20;49.80;;;;;;1588071;73;1719;-68
2021/12/11 06:00:40;;;;;;;;;;;24.10;49.80;;;;;;1601470;73;1690;-69
2021/12/11 06:02:42;;;;;;;;;;;24.10;49.90;;;;;;1582338;74;742;-68
2021/12/11 06:04:45;;;;;;;;;;;24.00;49.80;;;;;;1588739;73;1092;-67
2021/12/11 06:06:47;;;;;;;;;;;24.00;49.80;;;;;;1583500;73;1953;-70
2021/12/11 06:08:49;;;;;;;;;;;24.00;49.80;;;;;;1610546;73;813;-66
2021/12/11 06:10:51;;;;;;;;;;;24.00;49.80;;;;;;1600903;73;779;-66
2021/12/11 06:12:53;;;;;;;;;;;24.00;49.80;;;;;;1591317;73;751;-70
2021/12/11 06:14:55;;;;;;;;;;;24.00;49.80;;;;;;1589608;73;1145;-67
2021/12/11 06:16:57;;;;;;;;;;;24.00;49.80;;;;;;1591268;73;794;-69
2021/12/11 06:19:03;;;;;;;;;;;24.00;49.80;;;;;;1596298;73;761;-68
2021/12/11 06:21:03;;;;;;;;;;;24.00;49.80;;;;;;1586489;73;1506;-68
2021/12/11 06:23:05;;;;;;;;;;;24.00;49.80;;;;;;1578398;74;727;-68
2021/12/11 06:25:08;;;;;;;;;;;24.00;49.80;;;;;;1587802;73;1186;-67
2021/12/11 06:27:10;;;;;;;;;;;23.90;49.80;;;;;;1608042;73;1920;-69
2021/12/11 06:29:12;;;;;;;;;;;24.00;49.80;;;;;;1588074;74;765;-67
2021/12/11 06:31:18;;;;;;;;;;;24.00;49.90;;;;;;1592268;73;810;-70
2021/12/11 06:33:17;;;;;;;;;;;24.10;49.90;;;;;;1579834;73;1559;-68
2021/12/11 06:35:24;;;;;;;;;;;24.10;49.80;;;;;;1586946;73;1122;-68
2021/12/11 06:37:26;;;;;;;;;;;24.00;49.70;;;;;;1590399;73;796;-67
2021/12/11 06:39:28;;;;;;;;;;;24.00;49.70;;;;;;1579288;74;706;-66
2021/12/11 06:41:31;;;;;;;;;;;24.10;49.80;;;;;;1586194;74;647;-67
2021/12/11 06:43:33;;;;;;;;;;;24.00;49.70;;;;;;1598981;73;1291;-67
2021/12/11 06:45:35;;;;;;;;;;;24.00;49.70;;;;;;1578041;72;1192;-67
2021/12/11 06:47:38;;;;;;;;;;;24.00;49.70;;;;;;1601359;73;1936;-67
2021/12/11 06:49:40;;;;;;;;;;;23.90;49.70;;;;;;1592980;73;757;-67
2021/12/11 06:51:41;;;;;;;;;;;23.90;49.70;;;;;;1591169;73;731;-67
2021/12/11 06:53:45;;;;;;;;;;;24.00;49.70;;;;;;1597435;73;789;-67
2021/12/11 06:55:46;;;;;;;;;;;23.90;49.70;;;;;;1595450;73;1103;-70
2021/12/11 06:57:49;;;;;;;;;;;23.90;49.70;;;;;;1576656;72;750;-67
2021/12/11 06:59:51;;;;;;;;;;;23.90;49.60;;;;;;1592367;73;740;-69
2021/12/11 07:01:53;;;;;;;;;;;23.90;49.60;;;;;;1579340;73;818;-69
2021/12/11 07:03:56;;;;;;;;;;;23.90;49.50;;;;;;1587205;73;706;-67
2021/12/11 07:05:58;;;;;;;;;;;23.90;49.60;;;;;;1585780;73;793;-67
2021/12/11 07:08:00;;;;;;;;;;;23.90;49.60;;;;;;1580720;73;1942;-67
2021/12/11 07:10:03;;;;;;;;;;;23.90;49.60;;;;;;1586732;74;794;-67
2021/12/11 07:12:05;;;;;;;;;;;23.90;49.50;;;;;;1589650;74;724;-67
2021/12/11 07:14:07;;;;;;;;;;;23.90;49.50;;;;;;1596152;73;1144;-68
2021/12/11 07:16:09;;;;;;;;;;;23.80;49.40;;;;;;1591821;73;782;-67
2021/12/11 07:18:11;;;;;;;;;;;23.80;49.40;;;;;;1593271;73;811;-67
2021/12/11 07:20:13;;;;;;;;;;;23.80;49.50;;;;;;1583878;73;773;-67
2021/12/11 07:22:15;;;;;;;;;;;23.80;49.40;;;;;;1582652;73;868;-67
2021/12/11 07:24:18;;;;;;;;;;;23.80;49.40;;;;;;1587840;73;1175;-68
2021/12/11 07:26:24;;;;;;;;;;;23.80;49.40;;;;;;1588968;73;749;-67
2021/12/11 07:28:24;;;;;;;;;;;23.80;49.40;;;;;;1585451;73;1933;-68
2021/12/11 07:30:26;;;;;;;;;;;23.80;49.40;;;;;;1591892;73;790;-69
2021/12/11 07:32:28;;;;;;;;;;;23.80;49.40;;;;;;1593466;73;787;-67
2021/12/11 07:34:30;;;;;;;;;;;23.80;49.40;;;;;;1587719;73;1172;-68
2021/12/11 07:36:32;;;;;;;;;;;23.80;49.40;;;;;;1589421;74;718;-67
2021/12/11 07:38:34;;;;;;;;;;;23.70;49.40;;;;;;1594962;72;808;-67
2021/12/11 07:40:37;;;;;;;;;;;23.80;49.40;;;;;;1585749;73;672;-67
2021/12/11 07:42:39;;;;;;;;;;;23.80;49.40;;;;;;1581199;73;801;-69
2021/12/11 07:44:41;;;;;;;;;;;23.70;49.40;;;;;;1581634;72;1154;-66
2021/12/11 07:46:43;;;;;;;;;;;23.80;49.40;;;;;;1588785;73;765;-67
2021/12/11 07:48:45;;;;;;;;;;;23.70;49.40;;;;;;1584744;73;1938;-67
2021/12/11 07:50:47;;;;;;;;;;;23.70;49.40;;;;;;1587742;73;807;-68
2021/12/11 07:52:49;;;;;;;;;;;23.70;49.40;;;;;;1582167;73;755;-67
2021/12/11 07:54:51;;;;;;;;;;;23.80;49.40;;;;;;1595648;73;1172;-66
2021/12/11 07:56:54;;;;;;;;;;;23.80;49.40;;;;;;1579983;73;775;-69
2021/12/11 07:58:57;;;;;;;;;;;23.80;49.40;;;;;;1585737;73;754;-70
2021/12/11 08:00:59;;;;;;;;;;;23.70;49.30;;;;;;1594547;72;651;-66
2021/12/11 08:03:01;;;;;;;;;;;23.80;49.30;;;;;;1577826;74;636;-67
2021/12/11 08:05:03;;;;;;;;;;;23.80;49.30;;;;;;1593134;73;1098;-67
2021/12/11 08:07:05;;;;;;;;;;;23.70;49.30;;;;;;1583962;74;751;-67
2021/12/11 08:09:08;;;;;;;;;;;23.70;49.20;;;;;;1584190;73;1924;-66
2021/12/11 08:11:13;;;;;;;;;;;23.70;49.30;;;;;;1583545;73;675;-66
2021/12/11 08:13:15;;;;;;;;;;;23.80;49.20;;;;;;1583084;74;698;-67
2021/12/11 08:15:16;;;;;;;;;;;23.70;49.30;;;;;;1585232;72;1081;-67
2021/12/11 08:17:19;;;;;;;;;;;23.80;49.20;;;;;;1583270;73;748;-68
2021/12/11 08:19:22;;;;;;;;;;;23.70;49.20;;;;;;1588149;73;735;-67
2021/12/11 08:21:24;;;;;;;;;;;23.80;49.20;;;;;;1583291;73;721;-67
2021/12/11 08:23:25;;;;;;;;;;;23.70;49.20;;;;;;1581530;74;741;-69
2021/12/11 08:25:28;;;;;;;;;;;23.70;49.20;;;;;;1582134;73;1105;-67
2021/12/11 08:27:30;;;;;;;;;;;23.70;49.20;;;;;;1580998;73;1926;-66
2021/12/11 08:29:32;;;;;;;;;;;23.70;49.20;;;;;;1595164;73;793;-67
2021/12/11 08:31:34;;;;;;;;;;;23.70;49.20;;;;;;1572833;74;830;-67
2021/12/11 08:33:36;;;;;;;;;;;23.70;49.20;;;;;;1585845;73;675;-67
2021/12/11 08:35:38;;;;;;;;;;;23.80;49.20;;;;;;1552722;71;221742;-59
2021/12/11 08:37:40;;;;;;;;;;;23.70;49.20;;;;;;1541619;76;1181;-57
2021/12/11 08:39:42;;;;;;;;;;;23.80;49.10;;;;;;1540070;76;703;-59
2021/12/11 08:41:45;;;;;;;;;;;23.70;49.10;;;;;;1540288;76;786;-59
2021/12/11 08:43:53;;;;;;;;;;;23.80;49.20;;;;;;1538232;76;740;-59
2021/12/11 08:46:08;;;;;;;;;;;23.70;49.20;;;;;;1540274;76;1683;-58
2021/12/11 08:48:04;;;;;;;;;;;23.70;49.20;;;;;;1536217;76;1943;-59
2021/12/11 08:50:07;;;;;;;;;;;23.70;49.20;;;;;;1537351;76;747;-59
2021/12/11 08:52:10;;;;;;;;;;;23.70;49.10;;;;;;1541944;76;697;-59
2021/12/11 08:54:12;;;;;;;;;;;23.70;49.10;;;;;;1537188;76;1948;-58
2021/12/11 08:56:14;;;;;;;;;;;23.70;49.10;;;;;;1537243;76;1128;-59
2021/12/11 08:58:17;;;;;;;;;;;23.70;49.00;;;;;;1539040;76;715;-58
2021/12/11 09:00:23;;;;;;;;;;;23.70;49.00;;;;;;1535465;74;691;-59
2021/12/11 09:02:30;;;;;;;;;;;23.70;49.00;;;;;;1525775;76;1946;-58
2021/12/11 09:04:33;;;;;;;;;;;23.80;49.00;;;;;;1538446;76;781;-59
2021/12/11 09:06:37;;;;;;;;;;;23.70;49.00;;;;;;1537801;76;1156;-59
2021/12/11 09:08:40;;;;;;;;;;;23.70;49.00;;;;;;1535672;76;1934;-58
2021/12/11 09:10:44;;;;;;;;;;;23.80;48.90;;;;;;1535256;76;1079;-59
2021/12/11 09:12:50;;;;;;;;;;;23.70;49.00;;;;;;1538969;76;766;-59
2021/12/11 09:14:54;;;;;;;;;;;23.70;49.00;;;;;;1539250;76;756;-59
2021/12/11 09:17:06;;;;;;;;;;;23.70;48.90;;;;;;1535666;76;1642;-59
2021/12/11 09:19:10;;;;;;;;;;;23.70;49.00;;;;;;1538081;76;785;-58
2021/12/11 09:21:14;;;;;;;;;;;23.70;49.00;;;;;;1545803;76;709;-59
2021/12/11 09:23:27;;;;;;;;;;;23.70;49.00;;;;;;1542073;76;2061;-58
2021/12/11 09:25:30;;;;;;;;;;;23.70;49.00;;;;;;1547830;76;732;-58
2021/12/11 09:27:46;;;;;;;;;;;23.80;48.90;;;;;;1528012;76;1253;-58
2021/12/11 09:29:49;;;;;;;;;;;23.70;48.90;;;;;;1550498;76;727;-58
2021/12/11 09:31:53;;;;;;;;;;;23.70;48.90;;;;;;1542468;76;687;-59
2021/12/11 09:33:56;;;;;;;;;;;23.80;48.90;;;;;;1550843;76;706;-58
2021/12/11 09:36:06;;;;;;;;;;;23.70;48.90;;;;;;1543234;76;1976;-58
2021/12/11 09:38:09;;;;;;;;;;;23.70;48.90;;;;;;1550937;76;742;-59
2021/12/11 09:40:15;;;;;;;;;;;23.80;48.90;;;;;;1534025;76;714;-58
2021/12/11 09:42:16;;;;;;;;;;;23.70;48.90;;;;;;1540042;76;782;-59
2021/12/11 09:44:19;;;;;;;;;;;23.70;48.90;;;;;;1541044;76;774;-59
2021/12/11 09:46:23;;;;;;;;;;;23.70;48.90;;;;;;1535095;76;1182;-58
2021/12/11 09:48:25;;;;;;;;;;;23.70;48.90;;;;;;1542002;76;1959;-58
2021/12/11 09:50:31;;;;;;;;;;;23.80;48.80;;;;;;1536260;76;767;-58
2021/12/11 09:52:32;;;;;;;;;;;23.80;48.80;;;;;;1530687;76;1977;-58
2021/12/11 09:54:35;;;;;;;;;;;23.80;48.80;;;;;;1539245;75;788;-58
2021/12/11 09:56:38;;;;;;;;;;;23.70;48.70;;;;;;1542116;76;1125;-59
2021/12/11 09:58:41;;;;;;;;;;;23.70;48.90;;;;;;1536150;76;784;-58
2021/12/11 10:00:47;;;;;;;;;;;23.80;48.80;;;;;;1538534;76;734;-59
2021/12/11 10:02:49;;;;;;;;;;;23.80;48.80;;;;;;1536305;76;779;-59
2021/12/11 10:04:59;;;;;;;;;;;23.80;48.80;;;;;;1537256;76;735;-58
2021/12/11 10:07:24;;;;;;;;;;;23.80;48.70;;;;;;1532448;76;1657;-58
2021/12/11 10:09:18;;;;;;;;;;;23.80;48.70;;;;;;1524218;76;1944;-59
2021/12/11 10:11:16;;;;;;;;;;;23.70;48.70;;;;;;1539058;76;1691;-59
2021/12/11 10:13:18;;;;;;;;;;;23.70;48.80;;;;;;1540705;76;722;-58
2021/12/11 10:15:27;;;;;;;;;;;23.80;48.70;;;;;;1534775;76;743;-58
2021/12/11 10:17:34;;;;;;;;;;;23.80;48.80;;;;;;1540379;76;1794;-59
2021/12/11 10:19:34;;;;;;;;;;;23.80;48.80;;;;;;1540252;76;1656;-59
2021/12/11 10:21:37;;;;;;;;;;;23.70;48.70;;;;;;1540771;76;687;-59
2021/12/11 10:23:41;;;;;;;;;;;23.70;48.70;;;;;;1534376;76;1184;-57
2021/12/11 10:25:43;;;;;;;;;;;23.70;48.70;;;;;;1543519;76;687;-59
2021/12/11 10:27:45;;;;;;;;;;;23.70;48.70;;;;;;1543352;76;1172;-59
2021/12/11 10:29:46;;;;;;;;;;;23.70;48.70;;;;;;1542802;76;1952;-59
2021/12/11 10:31:50;;;;;;;;;;;23.80;48.70;;;;;;1531776;76;729;-59
2021/12/11 10:33:52;;;;;;;;;;;23.80;48.60;;;;;;1548364;76;1846;-59
2021/12/11 10:35:56;;;;;;;;;;;23.70;48.60;;;;;;1550479;74;790;-58
2021/12/11 10:37:58;;;;;;;;;;;23.70;48.70;;;;;;1538040;76;1205;-58
2021/12/11 10:40:00;;;;;;;;;;;23.80;48.60;;;;;;1545386;76;788;-58
2021/12/11 10:42:02;;;;;;;;;;;23.70;48.60;;;;;;1543921;76;768;-59
2021/12/11 10:44:06;;;;;;;;;;;23.70;48.60;;;;;;1555525;76;737;-58
2021/12/11 10:46:08;;;;;;;;;;;23.70;48.60;;;;;;1550360;76;1085;-59
2021/12/11 10:48:11;;;;;;;;;;;23.70;48.60;;;;;;1550494;76;752;-58
2021/12/11 10:50:14;;;;;;;;;;;23.70;48.60;;;;;;1531855;76;1941;-58
2021/12/11 10:52:18;;;;;;;;;;;23.70;48.60;;;;;;1549264;76;943;-60
2021/12/11 10:54:20;;;;;;;;;;;23.70;48.60;;;;;;1539308;76;1818;-58
2021/12/11 10:56:22;;;;;;;;;;;23.70;48.50;;;;;;1536632;76;1147;-58
2021/12/11 10:58:25;;;;;;;;;;;23.70;48.60;;;;;;1550394;76;639;-58
2021/12/11 11:00:29;;;;;;;;;;;23.70;48.60;;;;;;1540746;76;728;-58
2021/12/11 11:02:31;;;;;;;;;;;23.70;48.60;;;;;;1542912;76;714;-59
2021/12/11 11:04:35;;;;;;;;;;;23.80;48.60;;;;;;1548150;76;802;-58
2021/12/11 11:06:37;;;;;;;;;;;23.70;48.60;;;;;;1531508;76;1744;-59
2021/12/11 11:08:40;;;;;;;;;;;23.80;48.60;;;;;;1541970;76;1929;-59
2021/12/11 11:10:46;;;;;;;;;;;23.70;48.60;;;;;;1537341;76;770;-59
2021/12/11 11:12:48;;;;;;;;;;;23.80;48.60;;;;;;1531560;76;1013;-59
2021/12/11 11:14:53;;;;;;;;;;;23.70;48.60;;;;;;1540012;76;777;-58
2021/12/11 11:16:55;;;;;;;;;;;23.80;48.60;;;;;;1532421;76;1615;-59
2021/12/11 11:18:57;;;;;;;;;;;23.90;48.70;;;;;;1547984;76;785;-59
2021/12/11 11:21:01;;;;;;;;;;;23.80;48.60;;;;;;1541508;76;690;-58
2021/12/11 11:23:03;;;;;;;;;;;23.80;48.70;;;;;;1536612;76;705;-58
2021/12/11 11:25:06;;;;;;;;;;;23.70;48.60;;;;;;1535118;76;770;-58
2021/12/11 11:27:08;;;;;;;;;;;23.70;48.60;;;;;;1534386;76;1157;-59
2021/12/11 11:29:12;;;;;;;;;;;23.80;48.60;;;;;;1542125;76;1930;-59
2021/12/11 11:31:15;;;;;;;;;;;23.80;48.70;;;;;;1532994;76;754;-58
2021/12/11 11:33:17;;;;;;;;;;;23.80;48.70;;;;;;1534165;76;645;-58
2021/12/11 11:35:20;;;;;;;;;;;23.80;48.70;;;;;;1533294;76;676;-59
2021/12/11 11:37:22;;;;;;;;;;;23.70;48.70;;;;;;1544132;76;1189;-58
2021/12/11 11:39:24;;;;;;;;;;;23.70;48.70;;;;;;1549914;76;668;-58
2021/12/11 11:41:28;;;;;;;;;;;23.80;48.70;;;;;;1553359;76;766;-58
2021/12/11 11:43:30;;;;;;;;;;;23.70;48.70;;;;;;1541836;76;774;-59
2021/12/11 11:45:33;;;;;;;;;;;23.80;48.60;;;;;;1548771;76;801;-59
2021/12/11 11:47:35;;;;;;;;;;;23.70;48.60;;;;;;1545167;76;1952;-59
2021/12/11 11:49:37;;;;;;;;;;;23.70;48.60;;;;;;1530751;76;1924;-59
2021/12/11 11:51:40;;;;;;;;;;;23.80;48.60;;;;;;1554919;76;711;-59
2021/12/11 11:53:42;;;;;;;;;;;23.80;48.60;;;;;;1533793;76;1830;-58
2021/12/11 11:55:46;;;;;;;;;;;23.70;48.60;;;;;;1529617;76;732;-59
2021/12/11 11:57:48;;;;;;;;;;;23.90;48.60;;;;;;1538885;76;1130;-59
2021/12/11 11:59:50;;;;;;;;;;;23.80;48.60;;;;;;1529370;76;858;-58
2021/12/11 12:01:57;;;;;;;;;;;23.70;48.60;;;;;;1532830;76;734;-60
2021/12/11 12:04:00;;;;;;;;;;;23.70;48.60;;;;;;1534675;76;732;-59
2021/12/11 12:06:04;;;;;;;;;;;23.80;48.60;;;;;;1536335;76;780;-59
2021/12/11 12:08:06;;;;;;;;;;;23.70;48.60;;;;;;1540490;76;802;-58
2021/12/11 12:10:12;;;;;;;;;;;23.70;48.60;;;;;;1535015;76;1926;-58
2021/12/11 12:12:14;;;;;;;;;;;23.70;48.60;;;;;;1531957;76;805;-57
2021/12/11 12:14:18;;;;;;;;;;;23.70;48.60;;;;;;1539182;76;818;-58
2021/12/11 12:16:20;;;;;;;;;;;23.70;48.60;;;;;;1534881;76;1129;-57
2021/12/11 12:18:22;;;;;;;;;;;23.70;48.60;;;;;;1529221;76;777;-59
2021/12/11 12:20:24;;;;;;;;;;;23.70;48.60;;;;;;1533690;76;680;-58
2021/12/11 12:22:26;;;;;;;;;;;23.70;48.60;;;;;;1541044;76;803;-59